sensor_id;sensor_type;location;lat;lon;timestamp;temperature;humidity
6210;DHT22;3138;52.550;13.148;2023-04-03T00:00:48;0.60;1.00
6210;DHT22;3138;52.550;13.148;2023-04-03T00:03:15;0.60;1.00
6210;DHT22;3138;52.550;13.148;2023-04-03T00:05:42;0.40;1.00
6210;DHT22;3138;52.550;13.148;2023-04-03T00:08:09;0.40;1.00
6210;DHT22;3138;52.550;13.148;2023-04-03T00:10:37;0.40;1.00
6210;DHT22;3138;52.550;13.148;2023-04-03T00:13:05;0.40;1.00
6210;DHT22;3138;52.550;13.148;2023-04-03T00:15:32;0.30;1.00
6210;DHT22;3138;52.550;13.148;2023-04-03T00:17:59;0.30;1.00
6210;DHT22;3138;52.550;13.148;2023-04-03T00:20:26;0.30;1.00
6210;DHT22;3138;52.550;13.148;2023-04-03T00:22:54;0.20;1.00
6210;DHT22;3138;52.550;13.148;2023-04-03T00:25:21;0.10;1.00
6210;DHT22;3138;52.550;13.148;2023-04-03T00:27:50;0.10;1.00
6210;DHT22;3138;52.550;13.148;2023-04-03T00:30:18;0.20;1.00
6210;DHT22;3138;52.550;13.148;2023-04-03T00:32:47;0.10;1.00
6210;DHT22;3138;52.550;13.148;2023-04-03T00:35:14;0.10;1.00
6210;DHT22;3138;52.550;13.148;2023-04-03T00:37:41;0.10;1.00
6210;DHT22;3138;52.550;13.148;2023-04-03T00:40:09;0.10;3.10
6210;DHT22;3138;52.550;13.148;2023-04-03T00:42:36;0.10;1.00
6210;DHT22;3138;52.550;13.148;2023-04-03T00:45:26;0.10;1.00
6210;DHT22;3138;52.550;13.148;2023-04-03T00:47:54;0.00;9.40
6210;DHT22;3138;52.550;13.148;2023-04-03T00:50:22;-0.10;15.70
6210;DHT22;3138;52.550;13.148;2023-04-03T00:52:50;-0.10;40.70
6210;DHT22;3138;52.550;13.148;2023-04-03T00:55:17;-0.20;92.10
6210;DHT22;3138;52.550;13.148;2023-04-03T00:57:45;-0.30;99.90
6210;DHT22;3138;52.550;13.148;2023-04-03T01:00:15;-0.30;99.90
6210;DHT22;3138;52.550;13.148;2023-04-03T01:02:44;-0.30;99.90
6210;DHT22;3138;52.550;13.148;2023-04-03T01:05:12;-0.40;99.90
6210;DHT22;3138;52.550;13.148;2023-04-03T01:07:39;-0.50;99.90
6210;DHT22;3138;52.550;13.148;2023-04-03T01:10:09;-0.50;99.90
6210;DHT22;3138;52.550;13.148;2023-04-03T01:12:37;-0.50;99.90
6210;DHT22;3138;52.550;13.148;2023-04-03T01:15:08;-0.50;99.90
6210;DHT22;3138;52.550;13.148;2023-04-03T01:17:37;-0.60;99.90
6210;DHT22;3138;52.550;13.148;2023-04-03T01:20:37;-0.60;99.90
6210;DHT22;3138;52.550;13.148;2023-04-03T01:23:25;-0.50;1.00
6210;DHT22;3138;52.550;13.148;2023-04-03T01:25:55;-0.60;99.90
6210;DHT22;3138;52.550;13.148;2023-04-03T01:28:25;-0.60;1.00
6210;DHT22;3138;52.550;13.148;2023-04-03T01:30:59;-0.60;1.00
6210;DHT22;3138;52.550;13.148;2023-04-03T01:33:28;-0.70;1.00
6210;DHT22;3138;52.550;13.148;2023-04-03T01:35:55;-0.80;1.00
6210;DHT22;3138;52.550;13.148;2023-04-03T01:38:22;-0.90;1.00
6210;DHT22;3138;52.550;13.148;2023-04-03T01:40:49;-0.90;1.00
6210;DHT22;3138;52.550;13.148;2023-04-03T01:43:16;-0.90;1.00
6210;DHT22;3138;52.550;13.148;2023-04-03T01:45:43;-1.00;1.00
6210;DHT22;3138;52.550;13.148;2023-04-03T01:48:10;-1.00;1.00
6210;DHT22;3138;52.550;13.148;2023-04-03T01:50:38;-1.10;1.00
6210;DHT22;3138;52.550;13.148;2023-04-03T01:53:05;-1.20;1.00
6210;DHT22;3138;52.550;13.148;2023-04-03T01:55:32;-1.30;1.00
6210;DHT22;3138;52.550;13.148;2023-04-03T01:57:58;-1.30;1.00
6210;DHT22;3138;52.550;13.148;2023-04-03T02:00:25;-1.30;26.40
6210;DHT22;3138;52.550;13.148;2023-04-03T02:02:52;-1.30;99.90
6210;DHT22;3138;52.550;13.148;2023-04-03T02:05:19;-1.40;99.90
6210;DHT22;3138;52.550;13.148;2023-04-03T02:07:48;-1.40;99.90
6210;DHT22;3138;52.550;13.148;2023-04-03T02:10:14;-1.40;99.90
6210;DHT22;3138;52.550;13.148;2023-04-03T02:12:41;-1.40;99.90
6210;DHT22;3138;52.550;13.148;2023-04-03T02:15:09;-1.40;99.90
6210;DHT22;3138;52.550;13.148;2023-04-03T02:17:36;-1.50;99.90
6210;DHT22;3138;52.550;13.148;2023-04-03T02:20:03;-1.50;99.90
6210;DHT22;3138;52.550;13.148;2023-04-03T02:22:31;-1.50;99.90
6210;DHT22;3138;52.550;13.148;2023-04-03T02:24:59;-1.50;99.90
6210;DHT22;3138;52.550;13.148;2023-04-03T02:27:26;-1.50;99.90
6210;DHT22;3138;52.550;13.148;2023-04-03T02:29:53;-1.50;99.90
6210;DHT22;3138;52.550;13.148;2023-04-03T02:32:20;-1.60;99.90
6210;DHT22;3138;52.550;13.148;2023-04-03T02:34:47;-1.50;1.00
6210;DHT22;3138;52.550;13.148;2023-04-03T02:37:13;-1.40;1.00
6210;DHT22;3138;52.550;13.148;2023-04-03T02:39:40;-1.40;1.00
6210;DHT22;3138;52.550;13.148;2023-04-03T02:42:08;-1.40;1.00
6210;DHT22;3138;52.550;13.148;2023-04-03T02:44:35;-1.40;1.00
6210;DHT22;3138;52.550;13.148;2023-04-03T02:47:02;-1.40;1.00
6210;DHT22;3138;52.550;13.148;2023-04-03T02:49:29;-1.40;1.00
6210;DHT22;3138;52.550;13.148;2023-04-03T02:51:56;-1.40;1.00
6210;DHT22;3138;52.550;13.148;2023-04-03T02:54:23;-1.50;1.00
6210;DHT22;3138;52.550;13.148;2023-04-03T02:56:53;-1.50;1.00
6210;DHT22;3138;52.550;13.148;2023-04-03T02:59:21;-1.50;1.00
6210;DHT22;3138;52.550;13.148;2023-04-03T03:01:48;-1.40;1.00
6210;DHT22;3138;52.550;13.148;2023-04-03T03:04:15;-1.40;1.00
6210;DHT22;3138;52.550;13.148;2023-04-03T03:06:42;-1.40;1.00
6210;DHT22;3138;52.550;13.148;2023-04-03T03:09:09;-1.40;1.00
6210;DHT22;3138;52.550;13.148;2023-04-03T03:11:36;-1.40;1.00
6210;DHT22;3138;52.550;13.148;2023-04-03T03:14:02;-1.40;1.00
6210;DHT22;3138;52.550;13.148;2023-04-03T03:16:31;-1.30;1.00
6210;DHT22;3138;52.550;13.148;2023-04-03T03:18:58;-1.40;1.00
6210;DHT22;3138;52.550;13.148;2023-04-03T03:21:25;-1.30;1.00
6210;DHT22;3138;52.550;13.148;2023-04-03T03:23:52;-1.40;1.00
6210;DHT22;3138;52.550;13.148;2023-04-03T03:26:18;-1.40;1.00
6210;DHT22;3138;52.550;13.148;2023-04-03T03:28:45;-1.30;1.00
6210;DHT22;3138;52.550;13.148;2023-04-03T03:31:12;-1.30;1.00
6210;DHT22;3138;52.550;13.148;2023-04-03T03:33:42;-1.30;99.90
6210;DHT22;3138;52.550;13.148;2023-04-03T03:36:08;-1.30;99.90
6210;DHT22;3138;52.550;13.148;2023-04-03T03:38:35;-1.40;99.90
6210;DHT22;3138;52.550;13.148;2023-04-03T03:41:02;-1.40;1.00
6210;DHT22;3138;52.550;13.148;2023-04-03T03:43:29;-1.40;1.00
6210;DHT22;3138;52.550;13.148;2023-04-03T03:45:56;-1.40;1.00
6210;DHT22;3138;52.550;13.148;2023-04-03T03:48:23;-1.30;1.00
6210;DHT22;3138;52.550;13.148;2023-04-03T03:50:52;-1.40;1.00
6210;DHT22;3138;52.550;13.148;2023-04-03T03:53:21;-1.40;1.00
6210;DHT22;3138;52.550;13.148;2023-04-03T03:55:47;-1.40;1.00
6210;DHT22;3138;52.550;13.148;2023-04-03T03:58:14;-1.40;1.00
6210;DHT22;3138;52.550;13.148;2023-04-03T04:00:41;-1.40;1.00
6210;DHT22;3138;52.550;13.148;2023-04-03T04:03:08;-1.40;1.00
6210;DHT22;3138;52.550;13.148;2023-04-03T04:05:35;-1.40;1.00
6210;DHT22;3138;52.550;13.148;2023-04-03T04:08:03;-1.50;1.00
6210;DHT22;3138;52.550;13.148;2023-04-03T04:10:30;-1.50;1.00
6210;DHT22;3138;52.550;13.148;2023-04-03T04:12:57;-1.60;1.00
6210;DHT22;3138;52.550;13.148;2023-04-03T04:15:24;-1.60;1.00
6210;DHT22;3138;52.550;13.148;2023-04-03T04:17:51;-1.60;1.00
6210;DHT22;3138;52.550;13.148;2023-04-03T04:20:18;-1.60;1.00
6210;DHT22;3138;52.550;13.148;2023-04-03T04:22:45;-1.70;1.00
6210;DHT22;3138;52.550;13.148;2023-04-03T04:25:13;-1.70;9.00
6210;DHT22;3138;52.550;13.148;2023-04-03T04:27:40;-1.60;72.70
6210;DHT22;3138;52.550;13.148;2023-04-03T04:30:08;-1.70;91.60
6210;DHT22;3138;52.550;13.148;2023-04-03T04:32:35;-1.70;59.80
6210;DHT22;3138;52.550;13.148;2023-04-03T04:35:03;-1.70;99.90
6210;DHT22;3138;52.550;13.148;2023-04-03T04:37:30;-1.70;99.90
6210;DHT22;3138;52.550;13.148;2023-04-03T04:39:57;-1.80;99.90
6210;DHT22;3138;52.550;13.148;2023-04-03T04:42:25;-1.70;99.90
6210;DHT22;3138;52.550;13.148;2023-04-03T04:44:52;-1.80;99.90
6210;DHT22;3138;52.550;13.148;2023-04-03T04:47:19;-1.80;99.90
6210;DHT22;3138;52.550;13.148;2023-04-03T04:49:46;-1.80;99.90
6210;DHT22;3138;52.550;13.148;2023-04-03T04:52:13;-1.80;99.90
6210;DHT22;3138;52.550;13.148;2023-04-03T04:54:40;-1.70;1.00
6210;DHT22;3138;52.550;13.148;2023-04-03T04:57:07;-1.80;1.00
6210;DHT22;3138;52.550;13.148;2023-04-03T04:59:35;-1.80;1.00
6210;DHT22;3138;52.550;13.148;2023-04-03T05:02:02;-1.70;1.00
6210;DHT22;3138;52.550;13.148;2023-04-03T05:04:29;-1.80;1.00
6210;DHT22;3138;52.550;13.148;2023-04-03T05:06:56;-1.70;1.00
6210;DHT22;3138;52.550;13.148;2023-04-03T05:09:23;-1.70;1.00
6210;DHT22;3138;52.550;13.148;2023-04-03T05:11:50;-1.60;1.00
6210;DHT22;3138;52.550;13.148;2023-04-03T05:14:17;-1.60;1.00
6210;DHT22;3138;52.550;13.148;2023-04-03T05:16:46;-1.60;1.00
6210;DHT22;3138;52.550;13.148;2023-04-03T05:19:13;-1.50;1.00
6210;DHT22;3138;52.550;13.148;2023-04-03T05:21:39;-1.40;1.00
6210;DHT22;3138;52.550;13.148;2023-04-03T05:24:07;-1.30;1.00
6210;DHT22;3138;52.550;13.148;2023-04-03T05:26:34;-1.20;99.90
6210;DHT22;3138;52.550;13.148;2023-04-03T05:29:01;-1.10;99.90
6210;DHT22;3138;52.550;13.148;2023-04-03T05:31:28;-1.00;99.90
6210;DHT22;3138;52.550;13.148;2023-04-03T05:33:57;-0.90;93.80
6210;DHT22;3138;52.550;13.148;2023-04-03T05:36:24;-0.70;8.40
6210;DHT22;3138;52.550;13.148;2023-04-03T05:38:51;-0.60;1.00
6210;DHT22;3138;52.550;13.148;2023-04-03T05:41:18;-0.50;1.00
6210;DHT22;3138;52.550;13.148;2023-04-03T05:43:46;-0.40;1.00
6210;DHT22;3138;52.550;13.148;2023-04-03T05:46:16;-0.30;99.90
6210;DHT22;3138;52.550;13.148;2023-04-03T05:48:43;-0.20;99.90
6210;DHT22;3138;52.550;13.148;2023-04-03T05:51:16;-0.10;99.90
6210;DHT22;3138;52.550;13.148;2023-04-03T05:53:44;0.00;99.90
6210;DHT22;3138;52.550;13.148;2023-04-03T05:56:11;0.20;72.00
6210;DHT22;3138;52.550;13.148;2023-04-03T05:58:38;0.50;4.10
6210;DHT22;3138;52.550;13.148;2023-04-03T06:01:05;0.80;1.00
6210;DHT22;3138;52.550;13.148;2023-04-03T06:03:33;1.00;1.00
6210;DHT22;3138;52.550;13.148;2023-04-03T06:06:02;1.40;1.00
6210;DHT22;3138;52.550;13.148;2023-04-03T06:08:31;1.60;99.90
6210;DHT22;3138;52.550;13.148;2023-04-03T06:10:58;1.60;99.90
6210;DHT22;3138;52.550;13.148;2023-04-03T06:13:25;1.70;99.90
6210;DHT22;3138;52.550;13.148;2023-04-03T06:15:52;1.40;99.90
6210;DHT22;3138;52.550;13.148;2023-04-03T06:18:18;1.40;99.90
6210;DHT22;3138;52.550;13.148;2023-04-03T06:20:46;1.40;99.90
6210;DHT22;3138;52.550;13.148;2023-04-03T06:23:12;1.50;99.90
6210;DHT22;3138;52.550;13.148;2023-04-03T06:25:41;1.70;99.90
6210;DHT22;3138;52.550;13.148;2023-04-03T06:28:08;2.00;99.90
6210;DHT22;3138;52.550;13.148;2023-04-03T06:30:35;2.00;66.30
6210;DHT22;3138;52.550;13.148;2023-04-03T06:33:03;1.90;1.00
6210;DHT22;3138;52.550;13.148;2023-04-03T06:35:30;2.00;1.00
6210;DHT22;3138;52.550;13.148;2023-04-03T06:37:57;2.30;1.00
6210;DHT22;3138;52.550;13.148;2023-04-03T06:40:25;2.50;1.00
6210;DHT22;3138;52.550;13.148;2023-04-03T06:42:53;2.70;1.00
6210;DHT22;3138;52.550;13.148;2023-04-03T06:45:20;2.70;1.00
6210;DHT22;3138;52.550;13.148;2023-04-03T06:47:47;2.80;1.00
6210;DHT22;3138;52.550;13.148;2023-04-03T06:50:14;2.70;1.00
6210;DHT22;3138;52.550;13.148;2023-04-03T06:52:41;3.10;1.00
6210;DHT22;3138;52.550;13.148;2023-04-03T06:55:09;3.10;1.00
6210;DHT22;3138;52.550;13.148;2023-04-03T06:57:36;2.90;99.90
6210;DHT22;3138;52.550;13.148;2023-04-03T07:00:06;2.70;99.90
6210;DHT22;3138;52.550;13.148;2023-04-03T07:02:34;2.70;99.90
6210;DHT22;3138;52.550;13.148;2023-04-03T07:05:01;2.70;99.90
6210;DHT22;3138;52.550;13.148;2023-04-03T07:07:29;3.00;99.90
6210;DHT22;3138;52.550;13.148;2023-04-03T07:09:55;3.20;99.90
6210;DHT22;3138;52.550;13.148;2023-04-03T07:12:22;3.30;99.90
6210;DHT22;3138;52.550;13.148;2023-04-03T07:14:49;3.00;99.90
6210;DHT22;3138;52.550;13.148;2023-04-03T07:17:17;3.10;99.90
6210;DHT22;3138;52.550;13.148;2023-04-03T07:19:44;3.40;99.90
6210;DHT22;3138;52.550;13.148;2023-04-03T07:22:11;3.40;99.90
6210;DHT22;3138;52.550;13.148;2023-04-03T07:24:38;3.40;99.90
6210;DHT22;3138;52.550;13.148;2023-04-03T07:27:05;2.90;99.90
6210;DHT22;3138;52.550;13.148;2023-04-03T07:29:34;2.90;99.90
6210;DHT22;3138;52.550;13.148;2023-04-03T07:32:01;3.00;99.90
6210;DHT22;3138;52.550;13.148;2023-04-03T07:34:29;3.10;99.90
6210;DHT22;3138;52.550;13.148;2023-04-03T07:36:56;3.60;99.90
6210;DHT22;3138;52.550;13.148;2023-04-03T07:39:26;4.00;99.90
6210;DHT22;3138;52.550;13.148;2023-04-03T07:41:53;3.80;50.00
6210;DHT22;3138;52.550;13.148;2023-04-03T07:44:20;3.60;22.60
6210;DHT22;3138;52.550;13.148;2023-04-03T07:46:47;4.00;19.40
6210;DHT22;3138;52.550;13.148;2023-04-03T07:49:16;3.80;1.00
6210;DHT22;3138;52.550;13.148;2023-04-03T07:51:45;4.00;1.00
6210;DHT22;3138;52.550;13.148;2023-04-03T07:54:12;4.30;1.00
6210;DHT22;3138;52.550;13.148;2023-04-03T07:56:39;4.10;1.00
6210;DHT22;3138;52.550;13.148;2023-04-03T07:59:05;4.50;1.00
6210;DHT22;3138;52.550;13.148;2023-04-03T08:01:33;5.10;1.00
6210;DHT22;3138;52.550;13.148;2023-04-03T08:04:00;5.10;1.00
6210;DHT22;3138;52.550;13.148;2023-04-03T08:06:27;4.80;1.00
6210;DHT22;3138;52.550;13.148;2023-04-03T08:08:57;4.60;1.00
6210;DHT22;3138;52.550;13.148;2023-04-03T08:11:24;4.70;1.00
6210;DHT22;3138;52.550;13.148;2023-04-03T08:13:52;4.80;1.00
6210;DHT22;3138;52.550;13.148;2023-04-03T08:16:22;4.20;1.00
6210;DHT22;3138;52.550;13.148;2023-04-03T08:18:51;4.50;1.00
6210;DHT22;3138;52.550;13.148;2023-04-03T08:21:18;4.50;1.00
6210;DHT22;3138;52.550;13.148;2023-04-03T08:23:44;4.80;1.00
6210;DHT22;3138;52.550;13.148;2023-04-03T08:26:17;4.40;1.00
6210;DHT22;3138;52.550;13.148;2023-04-03T08:28:44;4.80;1.00
6210;DHT22;3138;52.550;13.148;2023-04-03T08:31:13;4.50;1.00
6210;DHT22;3138;52.550;13.148;2023-04-03T08:33:41;4.20;1.00
6210;DHT22;3138;52.550;13.148;2023-04-03T08:36:17;3.70;1.00
6210;DHT22;3138;52.550;13.148;2023-04-03T08:38:44;3.60;1.00
6210;DHT22;3138;52.550;13.148;2023-04-03T08:41:16;4.20;1.00
6210;DHT22;3138;52.550;13.148;2023-04-03T08:43:57;4.10;1.00
6210;DHT22;3138;52.550;13.148;2023-04-03T08:46:32;3.90;1.00
6210;DHT22;3138;52.550;13.148;2023-04-03T08:49:02;3.60;1.00
6210;DHT22;3138;52.550;13.148;2023-04-03T08:51:31;3.70;1.00
6210;DHT22;3138;52.550;13.148;2023-04-03T08:54:01;3.70;1.00
6210;DHT22;3138;52.550;13.148;2023-04-03T08:56:31;3.80;1.00
6210;DHT22;3138;52.550;13.148;2023-04-03T08:59:01;4.10;1.00
6210;DHT22;3138;52.550;13.148;2023-04-03T09:01:35;4.60;1.00
6210;DHT22;3138;52.550;13.148;2023-04-03T09:04:08;4.40;1.00
6210;DHT22;3138;52.550;13.148;2023-04-03T09:06:38;4.50;1.00
6210;DHT22;3138;52.550;13.148;2023-04-03T09:09:12;4.50;1.00
6210;DHT22;3138;52.550;13.148;2023-04-03T09:11:49;4.50;1.00
6210;DHT22;3138;52.550;13.148;2023-04-03T09:14:24;4.60;1.00
6210;DHT22;3138;52.550;13.148;2023-04-03T09:16:56;4.50;1.00
6210;DHT22;3138;52.550;13.148;2023-04-03T09:19:32;4.50;1.00
6210;DHT22;3138;52.550;13.148;2023-04-03T09:22:11;4.50;1.00
6210;DHT22;3138;52.550;13.148;2023-04-03T09:24:41;4.50;1.00
6210;DHT22;3138;52.550;13.148;2023-04-03T09:27:11;4.30;1.00
6210;DHT22;3138;52.550;13.148;2023-04-03T09:29:40;4.30;1.00
6210;DHT22;3138;52.550;13.148;2023-04-03T09:32:19;4.30;1.00
6210;DHT22;3138;52.550;13.148;2023-04-03T09:34:48;4.40;1.00
6210;DHT22;3138;52.550;13.148;2023-04-03T09:37:39;4.40;1.00
6210;DHT22;3138;52.550;13.148;2023-04-03T09:40:30;4.40;1.00
6210;DHT22;3138;52.550;13.148;2023-04-03T09:43:00;4.20;1.00
6210;DHT22;3138;52.550;13.148;2023-04-03T09:45:29;4.10;1.00
6210;DHT22;3138;52.550;13.148;2023-04-03T09:48:08;4.50;1.00
6210;DHT22;3138;52.550;13.148;2023-04-03T09:50:36;5.10;1.00
6210;DHT22;3138;52.550;13.148;2023-04-03T09:53:11;5.10;1.00
6210;DHT22;3138;52.550;13.148;2023-04-03T09:55:50;5.00;1.00
6210;DHT22;3138;52.550;13.148;2023-04-03T09:58:27;5.10;1.00
6210;DHT22;3138;52.550;13.148;2023-04-03T10:00:56;5.30;1.00
6210;DHT22;3138;52.550;13.148;2023-04-03T10:03:27;5.80;1.00
6210;DHT22;3138;52.550;13.148;2023-04-03T10:05:54;5.80;1.00
6210;DHT22;3138;52.550;13.148;2023-04-03T10:08:25;5.30;1.00
6210;DHT22;3138;52.550;13.148;2023-04-03T10:11:10;5.10;1.00
6210;DHT22;3138;52.550;13.148;2023-04-03T10:13:51;5.30;1.00
6210;DHT22;3138;52.550;13.148;2023-04-03T10:16:21;5.10;1.00
6210;DHT22;3138;52.550;13.148;2023-04-03T10:18:57;5.50;1.00
6210;DHT22;3138;52.550;13.148;2023-04-03T10:21:34;6.10;1.00
6210;DHT22;3138;52.550;13.148;2023-04-03T10:24:08;5.80;1.00
6210;DHT22;3138;52.550;13.148;2023-04-03T10:26:43;5.80;1.00
6210;DHT22;3138;52.550;13.148;2023-04-03T10:29:21;5.50;1.00
6210;DHT22;3138;52.550;13.148;2023-04-03T10:31:56;5.50;1.00
6210;DHT22;3138;52.550;13.148;2023-04-03T10:34:29;5.40;1.00
6210;DHT22;3138;52.550;13.148;2023-04-03T10:37:05;5.80;1.00
6210;DHT22;3138;52.550;13.148;2023-04-03T10:39:41;5.90;1.00
6210;DHT22;3138;52.550;13.148;2023-04-03T10:42:16;5.60;1.00
6210;DHT22;3138;52.550;13.148;2023-04-03T10:44:59;5.70;1.00
6210;DHT22;3138;52.550;13.148;2023-04-03T10:47:34;5.50;1.00
6210;DHT22;3138;52.550;13.148;2023-04-03T10:50:15;5.40;1.00
6210;DHT22;3138;52.550;13.148;2023-04-03T10:52:52;5.50;1.00
6210;DHT22;3138;52.550;13.148;2023-04-03T10:55:31;5.90;1.00
6210;DHT22;3138;52.550;13.148;2023-04-03T10:58:01;6.50;1.00
6210;DHT22;3138;52.550;13.148;2023-04-03T11:00:35;6.60;1.00
6210;DHT22;3138;52.550;13.148;2023-04-03T11:03:05;6.10;1.00
6210;DHT22;3138;52.550;13.148;2023-04-03T11:05:37;6.10;1.00
6210;DHT22;3138;52.550;13.148;2023-04-03T11:08:12;6.20;1.00
6210;DHT22;3138;52.550;13.148;2023-04-03T11:10:42;6.50;1.00
6210;DHT22;3138;52.550;13.148;2023-04-03T11:13:12;6.40;1.00
6210;DHT22;3138;52.550;13.148;2023-04-03T11:15:42;5.80;1.00
6210;DHT22;3138;52.550;13.148;2023-04-03T11:18:13;5.70;1.00
6210;DHT22;3138;52.550;13.148;2023-04-03T11:20:43;5.60;1.00
6210;DHT22;3138;52.550;13.148;2023-04-03T11:23:16;5.80;1.00
6210;DHT22;3138;52.550;13.148;2023-04-03T11:25:49;6.50;1.00
6210;DHT22;3138;52.550;13.148;2023-04-03T11:28:17;6.60;1.00
6210;DHT22;3138;52.550;13.148;2023-04-03T11:30:49;6.90;1.00
6210;DHT22;3138;52.550;13.148;2023-04-03T11:33:37;6.70;1.00
6210;DHT22;3138;52.550;13.148;2023-04-03T11:36:09;6.30;1.00
6210;DHT22;3138;52.550;13.148;2023-04-03T11:38:38;6.50;1.00
6210;DHT22;3138;52.550;13.148;2023-04-03T11:41:09;6.10;1.00
6210;DHT22;3138;52.550;13.148;2023-04-03T11:43:40;6.40;1.00
6210;DHT22;3138;52.550;13.148;2023-04-03T11:46:09;5.90;1.00
6210;DHT22;3138;52.550;13.148;2023-04-03T11:48:45;6.20;1.00
6210;DHT22;3138;52.550;13.148;2023-04-03T11:51:39;6.00;1.00
6210;DHT22;3138;52.550;13.148;2023-04-03T12:00:57;5.90;1.00
6210;DHT22;3138;52.550;13.148;2023-04-03T12:06:53;5.70;1.00
6210;DHT22;3138;52.550;13.148;2023-04-03T12:09:34;5.60;1.00
6210;DHT22;3138;52.550;13.148;2023-04-03T12:12:23;5.60;1.00
6210;DHT22;3138;52.550;13.148;2023-04-03T12:14:51;6.00;1.00
6210;DHT22;3138;52.550;13.148;2023-04-03T12:17:22;5.90;1.00
6210;DHT22;3138;52.550;13.148;2023-04-03T12:19:51;6.00;1.00
6210;DHT22;3138;52.550;13.148;2023-04-03T12:22:20;6.00;1.00
6210;DHT22;3138;52.550;13.148;2023-04-03T12:24:49;6.00;1.00
6210;DHT22;3138;52.550;13.148;2023-04-03T12:27:30;5.80;1.00
6210;DHT22;3138;52.550;13.148;2023-04-03T12:30:13;6.00;1.00
6210;DHT22;3138;52.550;13.148;2023-04-03T12:33:17;5.70;1.00
6210;DHT22;3138;52.550;13.148;2023-04-03T12:35:57;5.70;1.00
6210;DHT22;3138;52.550;13.148;2023-04-03T12:38:55;5.70;1.00
6210;DHT22;3138;52.550;13.148;2023-04-03T12:41:36;5.60;1.00
6210;DHT22;3138;52.550;13.148;2023-04-03T12:47:21;6.00;1.00
6210;DHT22;3138;52.550;13.148;2023-04-03T12:49:49;5.80;1.00
6210;DHT22;3138;52.550;13.148;2023-04-03T12:52:19;5.70;1.00
6210;DHT22;3138;52.550;13.148;2023-04-03T12:54:50;5.80;1.00
6210;DHT22;3138;52.550;13.148;2023-04-03T12:57:18;5.90;1.00
6210;DHT22;3138;52.550;13.148;2023-04-03T12:59:46;5.70;1.00
6210;DHT22;3138;52.550;13.148;2023-04-03T13:02:24;5.80;1.00
6210;DHT22;3138;52.550;13.148;2023-04-03T13:04:53;5.70;1.00
6210;DHT22;3138;52.550;13.148;2023-04-03T13:07:25;5.80;1.00
6210;DHT22;3138;52.550;13.148;2023-04-03T13:10:13;5.90;1.00
6210;DHT22;3138;52.550;13.148;2023-04-03T13:12:46;6.00;1.00
6210;DHT22;3138;52.550;13.148;2023-04-03T13:15:16;5.90;1.00
6210;DHT22;3138;52.550;13.148;2023-04-03T13:17:43;6.20;1.00
6210;DHT22;3138;52.550;13.148;2023-04-03T13:20:13;5.90;1.00
6210;DHT22;3138;52.550;13.148;2023-04-03T13:22:49;5.90;1.00
6210;DHT22;3138;52.550;13.148;2023-04-03T13:25:20;6.00;1.00
6210;DHT22;3138;52.550;13.148;2023-04-03T13:27:47;5.80;1.00
6210;DHT22;3138;52.550;13.148;2023-04-03T13:30:23;5.80;1.00
6210;DHT22;3138;52.550;13.148;2023-04-03T13:32:51;5.70;1.00
6210;DHT22;3138;52.550;13.148;2023-04-03T13:35:30;5.80;1.00
6210;DHT22;3138;52.550;13.148;2023-04-03T13:38:00;5.70;1.00
6210;DHT22;3138;52.550;13.148;2023-04-03T13:40:28;5.70;1.00
6210;DHT22;3138;52.550;13.148;2023-04-03T13:43:03;5.80;1.00
6210;DHT22;3138;52.550;13.148;2023-04-03T13:45:31;5.70;1.00
6210;DHT22;3138;52.550;13.148;2023-04-03T13:48:15;5.70;1.00
6210;DHT22;3138;52.550;13.148;2023-04-03T13:50:53;5.50;1.00
6210;DHT22;3138;52.550;13.148;2023-04-03T13:53:20;5.20;1.00
6210;DHT22;3138;52.550;13.148;2023-04-03T13:55:59;5.20;1.00
6210;DHT22;3138;52.550;13.148;2023-04-03T13:58:27;5.40;1.00
6210;DHT22;3138;52.550;13.148;2023-04-03T14:00:56;5.30;1.00
6210;DHT22;3138;52.550;13.148;2023-04-03T14:03:25;5.10;1.00
6210;DHT22;3138;52.550;13.148;2023-04-03T14:05:53;5.10;1.00
6210;DHT22;3138;52.550;13.148;2023-04-03T14:08:21;5.20;1.00
6210;DHT22;3138;52.550;13.148;2023-04-03T14:10:49;5.00;1.00
6210;DHT22;3138;52.550;13.148;2023-04-03T14:13:20;4.90;1.00
6210;DHT22;3138;52.550;13.148;2023-04-03T14:15:48;5.00;1.00
6210;DHT22;3138;52.550;13.148;2023-04-03T14:18:19;5.10;1.00
6210;DHT22;3138;52.550;13.148;2023-04-03T14:20:47;5.30;1.00
6210;DHT22;3138;52.550;13.148;2023-04-03T14:23:15;5.10;1.00
6210;DHT22;3138;52.550;13.148;2023-04-03T14:25:42;5.20;1.00
6210;DHT22;3138;52.550;13.148;2023-04-03T14:28:18;5.40;1.00
6210;DHT22;3138;52.550;13.148;2023-04-03T14:30:47;5.30;1.00
6210;DHT22;3138;52.550;13.148;2023-04-03T14:33:16;5.30;1.00
6210;DHT22;3138;52.550;13.148;2023-04-03T14:35:43;5.10;1.00
6210;DHT22;3138;52.550;13.148;2023-04-03T14:38:21;5.00;1.00
6210;DHT22;3138;52.550;13.148;2023-04-03T14:40:49;4.90;1.00
6210;DHT22;3138;52.550;13.148;2023-04-03T14:43:18;4.90;1.00
6210;DHT22;3138;52.550;13.148;2023-04-03T14:45:45;5.00;1.00
6210;DHT22;3138;52.550;13.148;2023-04-03T14:48:17;5.00;1.00
6210;DHT22;3138;52.550;13.148;2023-04-03T14:50:45;4.90;1.00
6210;DHT22;3138;52.550;13.148;2023-04-03T14:53:13;4.80;1.00
6210;DHT22;3138;52.550;13.148;2023-04-03T14:55:40;5.10;1.00
6210;DHT22;3138;52.550;13.148;2023-04-03T14:58:11;5.40;1.00
6210;DHT22;3138;52.550;13.148;2023-04-03T15:00:39;5.50;1.00
6210;DHT22;3138;52.550;13.148;2023-04-03T15:03:12;5.40;1.00
6210;DHT22;3138;52.550;13.148;2023-04-03T15:05:39;5.50;1.00
6210;DHT22;3138;52.550;13.148;2023-04-03T15:08:16;5.40;1.00
6210;DHT22;3138;52.550;13.148;2023-04-03T15:10:44;5.20;1.00
6210;DHT22;3138;52.550;13.148;2023-04-03T15:13:12;5.30;1.00
6210;DHT22;3138;52.550;13.148;2023-04-03T15:15:41;5.20;1.00
6210;DHT22;3138;52.550;13.148;2023-04-03T15:18:15;5.30;1.00
6210;DHT22;3138;52.550;13.148;2023-04-03T15:20:43;5.30;1.00
6210;DHT22;3138;52.550;13.148;2023-04-03T15:23:12;5.30;1.00
6210;DHT22;3138;52.550;13.148;2023-04-03T15:25:39;5.10;1.00
6210;DHT22;3138;52.550;13.148;2023-04-03T15:28:08;5.10;1.00
6210;DHT22;3138;52.550;13.148;2023-04-03T15:30:36;5.00;1.00
6210;DHT22;3138;52.550;13.148;2023-04-03T15:33:07;5.00;1.00
6210;DHT22;3138;52.550;13.148;2023-04-03T15:35:34;4.90;1.00
6210;DHT22;3138;52.550;13.148;2023-04-03T15:38:00;5.00;1.00
6210;DHT22;3138;52.550;13.148;2023-04-03T15:40:27;4.90;1.00
6210;DHT22;3138;52.550;13.148;2023-04-03T15:42:54;4.80;1.00
6210;DHT22;3138;52.550;13.148;2023-04-03T15:45:21;4.80;1.00
6210;DHT22;3138;52.550;13.148;2023-04-03T15:47:48;4.90;1.00
6210;DHT22;3138;52.550;13.148;2023-04-03T15:50:19;4.70;1.00
6210;DHT22;3138;52.550;13.148;2023-04-03T15:52:48;4.60;1.00
6210;DHT22;3138;52.550;13.148;2023-04-03T15:55:19;4.60;1.00
6210;DHT22;3138;52.550;13.148;2023-04-03T15:57:46;4.50;1.00
6210;DHT22;3138;52.550;13.148;2023-04-03T16:00:14;4.50;1.00
6210;DHT22;3138;52.550;13.148;2023-04-03T16:02:42;4.40;1.00
6210;DHT22;3138;52.550;13.148;2023-04-03T16:05:09;4.40;1.00
6210;DHT22;3138;52.550;13.148;2023-04-03T16:07:38;4.30;1.00
6210;DHT22;3138;52.550;13.148;2023-04-03T16:10:07;4.40;1.00
6210;DHT22;3138;52.550;13.148;2023-04-03T16:12:35;4.40;1.00
6210;DHT22;3138;52.550;13.148;2023-04-03T16:15:02;4.50;1.00
6210;DHT22;3138;52.550;13.148;2023-04-03T16:17:29;4.40;1.00
6210;DHT22;3138;52.550;13.148;2023-04-03T16:19:57;4.40;1.00
6210;DHT22;3138;52.550;13.148;2023-04-03T16:22:25;4.40;1.00
6210;DHT22;3138;52.550;13.148;2023-04-03T16:24:54;4.30;1.00
6210;DHT22;3138;52.550;13.148;2023-04-03T16:27:22;4.20;1.00
6210;DHT22;3138;52.550;13.148;2023-04-03T16:29:53;4.20;1.00
6210;DHT22;3138;52.550;13.148;2023-04-03T16:32:20;4.10;1.00
6210;DHT22;3138;52.550;13.148;2023-04-03T16:34:47;4.10;1.00
6210;DHT22;3138;52.550;13.148;2023-04-03T16:37:14;4.00;1.00
6210;DHT22;3138;52.550;13.148;2023-04-03T16:39:41;4.00;1.00